sensor_id;sensor_type;location;lat;lon;timestamp;pressure;altitude;pressure_sealevel;temperature;humidity
24610;BME280;12758;47.890;11.694;2022-10-23T00:01:34;94086.78;;;13.02;79.69
24610;BME280;12758;47.890;11.694;2022-10-23T00:04:06;94088.72;;;13.02;79.47
24610;BME280;12758;47.890;11.694;2022-10-23T00:06:35;94080.41;;;12.98;80.53
24610;BME280;12758;47.890;11.694;2022-10-23T00:09:03;94083.13;;;12.98;79.90
24610;BME280;12758;47.890;11.694;2022-10-23T00:11:29;94086.06;;;12.93;79.52
24610;BME280;12758;47.890;11.694;2022-10-23T00:13:56;94080.84;;;12.88;80.29
24610;BME280;12758;47.890;11.694;2022-10-23T00:16:26;94090.59;;;12.89;80.24
24610;BME280;12758;47.890;11.694;2022-10-23T00:18:53;94090.38;;;12.82;80.32
24610;BME280;12758;47.890;11.694;2022-10-23T00:21:22;94076.28;;;12.80;79.40
24610;BME280;12758;47.890;11.694;2022-10-23T00:23:48;94065.63;;;12.87;79.10
24610;BME280;12758;47.890;11.694;2022-10-23T00:26:18;94079.94;;;12.96;79.13
24610;BME280;12758;47.890;11.694;2022-10-23T00:28:48;94074.50;;;12.96;78.81
24610;BME280;12758;47.890;11.694;2022-10-23T00:31:17;94072.69;;;12.88;78.81
24610;BME280;12758;47.890;11.694;2022-10-23T00:33:44;94064.47;;;12.76;77.78
24610;BME280;12758;47.890;11.694;2022-10-23T00:36:16;94066.53;;;12.79;78.67
24610;BME280;12758;47.890;11.694;2022-10-23T00:38:46;94072.44;;;12.81;79.05
24610;BME280;12758;47.890;11.694;2022-10-23T00:41:17;94056.09;;;12.81;78.73
24610;BME280;12758;47.890;11.694;2022-10-23T00:44:02;94053.03;;;12.82;78.73
24610;BME280;12758;47.890;11.694;2022-10-23T00:46:31;94054.59;;;12.83;78.44
24610;BME280;12758;47.890;11.694;2022-10-23T00:48:57;94056.88;;;12.81;77.83
24610;BME280;12758;47.890;11.694;2022-10-23T00:51:30;94061.28;;;12.74;78.08
24610;BME280;12758;47.890;11.694;2022-10-23T00:53:58;94060.88;;;12.51;78.98
24610;BME280;12758;47.890;11.694;2022-10-23T00:56:28;94055.06;;;12.40;79.37
24610;BME280;12758;47.890;11.694;2022-10-23T00:58:55;94060.38;;;12.37;79.48
24610;BME280;12758;47.890;11.694;2022-10-23T01:01:24;94057.31;;;12.38;80.30
24610;BME280;12758;47.890;11.694;2022-10-23T01:03:50;94054.13;;;12.36;79.61
24610;BME280;12758;47.890;11.694;2022-10-23T01:06:26;94052.44;;;12.44;78.57
24610;BME280;12758;47.890;11.694;2022-10-23T01:09:00;94057.78;;;12.40;78.50
24610;BME280;12758;47.890;11.694;2022-10-23T01:11:37;94060.50;;;12.40;78.97
24610;BME280;12758;47.890;11.694;2022-10-23T01:14:10;94066.25;;;12.39;78.97
24610;BME280;12758;47.890;11.694;2022-10-23T01:16:42;94060.03;;;12.38;78.15
24610;BME280;12758;47.890;11.694;2022-10-23T01:19:17;94063.63;;;12.09;75.41
24610;BME280;12758;47.890;11.694;2022-10-23T01:21:50;94068.41;;;12.12;77.50
24610;BME280;12758;47.890;11.694;2022-10-23T01:24:31;94071.72;;;11.97;77.48
24610;BME280;12758;47.890;11.694;2022-10-23T01:27:15;94066.03;;;12.10;78.66
24610;BME280;12758;47.890;11.694;2022-10-23T01:29:47;94066.09;;;12.02;77.61
24610;BME280;12758;47.890;11.694;2022-10-23T01:32:23;94056.72;;;12.11;77.66
24610;BME280;12758;47.890;11.694;2022-10-23T01:34:56;94050.50;;;11.90;78.39
24610;BME280;12758;47.890;11.694;2022-10-23T01:37:31;94047.84;;;12.02;79.04
24610;BME280;12758;47.890;11.694;2022-10-23T01:40:03;94044.66;;;12.00;78.79
24610;BME280;12758;47.890;11.694;2022-10-23T01:42:35;94042.66;;;12.09;78.40
24610;BME280;12758;47.890;11.694;2022-10-23T01:45:03;94044.66;;;12.00;78.75
24610;BME280;12758;47.890;11.694;2022-10-23T01:47:35;94051.97;;;12.08;78.87
24610;BME280;12758;47.890;11.694;2022-10-23T01:50:06;94044.25;;;12.10;78.56
24610;BME280;12758;47.890;11.694;2022-10-23T01:52:33;94046.91;;;11.98;78.48
24610;BME280;12758;47.890;11.694;2022-10-23T01:55:00;94037.44;;;12.04;79.14
24610;BME280;12758;47.890;11.694;2022-10-23T01:57:30;94030.50;;;12.07;79.25
24610;BME280;12758;47.890;11.694;2022-10-23T02:00:04;94026.47;;;12.13;78.30
24610;BME280;12758;47.890;11.694;2022-10-23T02:02:31;94024.25;;;11.94;78.05
24610;BME280;12758;47.890;11.694;2022-10-23T02:05:05;94017.41;;;11.88;78.62
24610;BME280;12758;47.890;11.694;2022-10-23T02:07:32;94016.63;;;11.79;78.74
24610;BME280;12758;47.890;11.694;2022-10-23T02:10:02;94011.06;;;11.75;77.07
24610;BME280;12758;47.890;11.694;2022-10-23T02:12:32;93996.06;;;11.69;77.28
24610;BME280;12758;47.890;11.694;2022-10-23T02:15:08;93996.47;;;11.80;77.89
24610;BME280;12758;47.890;11.694;2022-10-23T02:17:44;93992.91;;;11.88;78.00
24610;BME280;12758;47.890;11.694;2022-10-23T02:20:18;93993.84;;;11.92;77.32
24610;BME280;12758;47.890;11.694;2022-10-23T02:22:50;93994.31;;;11.94;77.79
24610;BME280;12758;47.890;11.694;2022-10-23T02:25:19;93997.22;;;11.89;77.46
24610;BME280;12758;47.890;11.694;2022-10-23T02:27:53;94001.25;;;11.83;77.64
24610;BME280;12758;47.890;11.694;2022-10-23T02:30:24;93997.78;;;11.74;77.42
24610;BME280;12758;47.890;11.694;2022-10-23T02:32:52;93983.06;;;11.75;77.20
24610;BME280;12758;47.890;11.694;2022-10-23T02:35:23;93982.25;;;11.74;77.81
24610;BME280;12758;47.890;11.694;2022-10-23T02:37:53;93987.84;;;11.78;77.61
24610;BME280;12758;47.890;11.694;2022-10-23T02:40:22;93979.69;;;11.78;78.30
24610;BME280;12758;47.890;11.694;2022-10-23T02:42:51;93985.34;;;11.73;76.53
24610;BME280;12758;47.890;11.694;2022-10-23T02:45:27;93979.34;;;11.58;77.05
24610;BME280;12758;47.890;11.694;2022-10-23T02:47:57;93978.56;;;11.58;77.68
24610;BME280;12758;47.890;11.694;2022-10-23T02:50:32;93968.59;;;11.62;77.79
24610;BME280;12758;47.890;11.694;2022-10-23T02:53:06;93973.53;;;11.69;78.49
24610;BME280;12758;47.890;11.694;2022-10-23T02:55:46;93982.13;;;11.71;77.60
24610;BME280;12758;47.890;11.694;2022-10-23T02:58:18;93983.31;;;11.40;77.02
24610;BME280;12758;47.890;11.694;2022-10-23T03:00:51;93967.94;;;11.44;78.11
24610;BME280;12758;47.890;11.694;2022-10-23T03:03:23;93971.13;;;11.46;77.68
24610;BME280;12758;47.890;11.694;2022-10-23T03:05:51;93976.84;;;11.53;79.09
24610;BME280;12758;47.890;11.694;2022-10-23T03:08:21;93976.84;;;11.53;79.14
24610;BME280;12758;47.890;11.694;2022-10-23T03:10:47;93978.16;;;11.47;78.43
24610;BME280;12758;47.890;11.694;2022-10-23T03:13:16;93983.25;;;11.49;79.10
24610;BME280;12758;47.890;11.694;2022-10-23T03:15:43;93979.34;;;11.58;78.34
24610;BME280;12758;47.890;11.694;2022-10-23T03:18:13;93967.41;;;11.51;78.67
24610;BME280;12758;47.890;11.694;2022-10-23T03:20:39;93971.59;;;11.48;77.84
24610;BME280;12758;47.890;11.694;2022-10-23T03:23:10;93973.66;;;11.51;77.87
24610;BME280;12758;47.890;11.694;2022-10-23T03:25:37;93969.13;;;11.55;77.99
24610;BME280;12758;47.890;11.694;2022-10-23T03:28:06;93963.69;;;11.55;77.77
24610;BME280;12758;47.890;11.694;2022-10-23T03:30:32;93968.81;;;11.57;77.80
24610;BME280;12758;47.890;11.694;2022-10-23T03:33:01;93967.72;;;11.49;77.73
24610;BME280;12758;47.890;11.694;2022-10-23T03:35:31;93957.66;;;11.29;78.49
24610;BME280;12758;47.890;11.694;2022-10-23T03:37:57;93956.81;;;11.37;78.28
24610;BME280;12758;47.890;11.694;2022-10-23T03:40:23;93958.53;;;11.41;78.32
24610;BME280;12758;47.890;11.694;2022-10-23T03:42:52;93956.16;;;11.40;78.17
24610;BME280;12758;47.890;11.694;2022-10-23T03:45:21;93952.97;;;11.38;78.23
24610;BME280;12758;47.890;11.694;2022-10-23T03:47:47;93952.47;;;11.36;78.71
24610;BME280;12758;47.890;11.694;2022-10-23T03:50:18;93959.97;;;11.39;78.84
24610;BME280;12758;47.890;11.694;2022-10-23T03:52:45;93954.66;;;11.42;78.72
24610;BME280;12758;47.890;11.694;2022-10-23T03:55:14;93957.06;;;11.44;78.52
24610;BME280;12758;47.890;11.694;2022-10-23T03:57:40;93949.44;;;11.37;77.34
24610;BME280;12758;47.890;11.694;2022-10-23T04:00:10;93953.47;;;11.31;78.71
24610;BME280;12758;47.890;11.694;2022-10-23T04:02:37;93963.56;;;11.31;78.78
24610;BME280;12758;47.890;11.694;2022-10-23T04:05:06;93954.28;;;11.32;79.15
24610;BME280;12758;47.890;11.694;2022-10-23T04:07:32;93959.53;;;11.37;78.72
24610;BME280;12758;47.890;11.694;2022-10-23T04:10:02;93961.78;;;11.35;78.36
24610;BME280;12758;47.890;11.694;2022-10-23T04:12:28;93949.09;;;11.39;78.30
24610;BME280;12758;47.890;11.694;2022-10-23T04:14:58;93940.75;;;11.44;78.04
24610;BME280;12758;47.890;11.694;2022-10-23T04:17:26;93940.09;;;11.47;77.98
24610;BME280;12758;47.890;11.694;2022-10-23T04:19:55;93943.28;;;11.49;78.02
24610;BME280;12758;47.890;11.694;2022-10-23T04:22:21;93941.38;;;11.50;77.80
24610;BME280;12758;47.890;11.694;2022-10-23T04:24:51;93945.53;;;11.47;77.42
24610;BME280;12758;47.890;11.694;2022-10-23T04:27:20;93947.78;;;11.45;77.99
24610;BME280;12758;47.890;11.694;2022-10-23T04:29:46;93949.50;;;11.29;77.98
24610;BME280;12758;47.890;11.694;2022-10-23T04:32:16;93945.78;;;11.12;79.28
24610;BME280;12758;47.890;11.694;2022-10-23T04:34:42;93945.38;;;11.23;79.64
24610;BME280;12758;47.890;11.694;2022-10-23T04:37:11;93943.13;;;11.25;78.83
24610;BME280;12758;47.890;11.694;2022-10-23T04:39:37;93935.25;;;11.32;78.52
24610;BME280;12758;47.890;11.694;2022-10-23T04:42:06;93950.25;;;11.38;78.59
24610;BME280;12758;47.890;11.694;2022-10-23T04:44:33;93944.31;;;11.36;78.57
24610;BME280;12758;47.890;11.694;2022-10-23T04:47:02;93940.94;;;11.39;78.45
24610;BME280;12758;47.890;11.694;2022-10-23T04:49:28;93943.34;;;11.40;78.46
24610;BME280;12758;47.890;11.694;2022-10-23T04:51:57;93929.19;;;11.05;76.95
24610;BME280;12758;47.890;11.694;2022-10-23T04:54:23;93938.19;;;10.97;77.98
24610;BME280;12758;47.890;11.694;2022-10-23T04:56:52;93930.88;;;11.18;78.90
24610;BME280;12758;47.890;11.694;2022-10-23T04:59:18;93934.31;;;11.28;79.00
24610;BME280;12758;47.890;11.694;2022-10-23T05:01:48;93930.97;;;11.31;78.50
24610;BME280;12758;47.890;11.694;2022-10-23T05:04:14;93927.75;;;11.29;78.99
24610;BME280;12758;47.890;11.694;2022-10-23T05:06:43;93924.38;;;11.32;78.70
24610;BME280;12758;47.890;11.694;2022-10-23T05:09:09;93925.25;;;10.94;76.64
24610;BME280;12758;47.890;11.694;2022-10-23T05:11:38;93922.38;;;10.99;78.25
24610;BME280;12758;47.890;11.694;2022-10-23T05:14:04;93924.16;;;10.95;78.65
24610;BME280;12758;47.890;11.694;2022-10-23T05:16:36;93922.16;;;11.04;78.22
24610;BME280;12758;47.890;11.694;2022-10-23T05:19:08;93927.09;;;11.11;78.42
24610;BME280;12758;47.890;11.694;2022-10-23T05:21:35;93916.94;;;10.99;78.27
24610;BME280;12758;47.890;11.694;2022-10-23T05:24:02;93925.09;;;10.99;78.37
24610;BME280;12758;47.890;11.694;2022-10-23T05:26:31;93920.56;;;11.03;78.62
24610;BME280;12758;47.890;11.694;2022-10-23T05:29:00;93915.41;;;10.89;77.76
24610;BME280;12758;47.890;11.694;2022-10-23T05:31:26;93917.84;;;11.03;78.58
24610;BME280;12758;47.890;11.694;2022-10-23T05:33:56;93920.31;;;10.96;79.06
24610;BME280;12758;47.890;11.694;2022-10-23T05:36:23;93919.66;;;10.99;79.33
24610;BME280;12758;47.890;11.694;2022-10-23T05:38:52;93908.97;;;10.94;79.31
24610;BME280;12758;47.890;11.694;2022-10-23T05:41:19;93909.09;;;10.98;79.56
24610;BME280;12758;47.890;11.694;2022-10-23T05:43:48;93917.41;;;11.01;79.22
24610;BME280;12758;47.890;11.694;2022-10-23T05:46:14;93919.75;;;11.11;79.25
24610;BME280;12758;47.890;11.694;2022-10-23T05:48:43;93917.47;;;11.13;79.22
24610;BME280;12758;47.890;11.694;2022-10-23T05:51:10;93913.16;;;11.12;78.94
24610;BME280;12758;47.890;11.694;2022-10-23T05:53:39;93919.53;;;11.16;78.47
24610;BME280;12758;47.890;11.694;2022-10-23T05:56:08;93907.34;;;11.23;78.82
24610;BME280;12758;47.890;11.694;2022-10-23T05:58:37;93912.50;;;11.15;77.71
24610;BME280;12758;47.890;11.694;2022-10-23T06:01:08;93926.56;;;11.17;78.11
24610;BME280;12758;47.890;11.694;2022-10-23T06:03:34;93921.13;;;11.17;78.26
24610;BME280;12758;47.890;11.694;2022-10-23T06:06:01;93919.53;;;11.16;78.68
24610;BME280;12758;47.890;11.694;2022-10-23T06:08:27;93919.88;;;11.15;79.06
24610;BME280;12758;47.890;11.694;2022-10-23T06:10:57;93914.31;;;11.11;78.40
24610;BME280;12758;47.890;11.694;2022-10-23T06:13:23;93915.81;;;11.00;79.27
24610;BME280;12758;47.890;11.694;2022-10-23T06:15:52;93914.75;;;10.92;80.28
24610;BME280;12758;47.890;11.694;2022-10-23T06:18:18;93911.03;;;10.97;80.17
24610;BME280;12758;47.890;11.694;2022-10-23T06:20:47;93919.00;;;11.02;79.50
24610;BME280;12758;47.890;11.694;2022-10-23T06:23:14;93913.56;;;11.02;79.41
24610;BME280;12758;47.890;11.694;2022-10-23T06:25:49;93911.28;;;11.04;79.21
24610;BME280;12758;47.890;11.694;2022-10-23T06:28:16;93921.22;;;11.00;78.98
24610;BME280;12758;47.890;11.694;2022-10-23T06:30:45;93913.75;;;10.97;78.57
24610;BME280;12758;47.890;11.694;2022-10-23T06:33:11;93919.31;;;11.01;79.40
24610;BME280;12758;47.890;11.694;2022-10-23T06:35:40;93922.03;;;11.01;79.92
24610;BME280;12758;47.890;11.694;2022-10-23T06:38:06;93909.44;;;10.96;79.33
24610;BME280;12758;47.890;11.694;2022-10-23T06:40:36;93907.84;;;10.95;79.46
24610;BME280;12758;47.890;11.694;2022-10-23T06:43:06;93909.72;;;11.03;79.64
24610;BME280;12758;47.890;11.694;2022-10-23T06:45:36;93920.06;;;11.10;79.94
24610;BME280;12758;47.890;11.694;2022-10-23T06:48:03;93914.31;;;11.11;79.96
24610;BME280;12758;47.890;11.694;2022-10-23T06:50:32;93918.84;;;10.99;79.96
24610;BME280;12758;47.890;11.694;2022-10-23T06:53:01;93924.81;;;10.92;80.48
24610;BME280;12758;47.890;11.694;2022-10-23T06:55:31;93925.09;;;10.99;80.95
24610;BME280;12758;47.890;11.694;2022-10-23T06:58:01;93941.13;;;11.13;81.26
24610;BME280;12758;47.890;11.694;2022-10-23T07:00:27;93939.13;;;11.01;80.54
24610;BME280;12758;47.890;11.694;2022-10-23T07:02:56;93927.22;;;10.85;82.43
24610;BME280;12758;47.890;11.694;2022-10-23T07:05:22;93928.72;;;11.03;82.99
24610;BME280;12758;47.890;11.694;2022-10-23T07:07:51;93927.31;;;10.97;82.39
24610;BME280;12758;47.890;11.694;2022-10-23T07:10:17;93922.00;;;10.80;83.80
24610;BME280;12758;47.890;11.694;2022-10-23T07:12:46;93930.78;;;11.06;83.52
24610;BME280;12758;47.890;11.694;2022-10-23T07:15:13;93930.03;;;10.97;82.61
24610;BME280;12758;47.890;11.694;2022-10-23T07:17:42;93929.09;;;10.63;86.78
24610;BME280;12758;47.890;11.694;2022-10-23T07:20:09;93926.38;;;10.63;87.08
24610;BME280;12758;47.890;11.694;2022-10-23T07:22:38;93923.19;;;10.61;88.02
24610;BME280;12758;47.890;11.694;2022-10-23T07:25:05;93918.69;;;10.65;87.88
24610;BME280;12758;47.890;11.694;2022-10-23T07:27:35;93913.38;;;10.78;87.07
24610;BME280;12758;47.890;11.694;2022-10-23T07:30:02;93921.72;;;10.72;87.58
24610;BME280;12758;47.890;11.694;2022-10-23T07:32:31;93919.72;;;10.82;86.80
24610;BME280;12758;47.890;11.694;2022-10-23T07:35:00;93922.53;;;10.94;86.37
24610;BME280;12758;47.890;11.694;2022-10-23T07:37:28;93919.06;;;10.85;87.01
24610;BME280;12758;47.890;11.694;2022-10-23T07:39:54;93925.09;;;10.99;86.65
24610;BME280;12758;47.890;11.694;2022-10-23T07:42:23;93930.50;;;10.99;86.77
24610;BME280;12758;47.890;11.694;2022-10-23T07:44:52;93930.03;;;10.97;87.47
24610;BME280;12758;47.890;11.694;2022-10-23T07:47:18;93932.09;;;11.00;87.14
24610;BME280;12758;47.890;11.694;2022-10-23T07:49:46;93935.94;;;10.99;88.32
24610;BME280;12758;47.890;11.694;2022-10-23T07:52:12;93937.53;;;11.00;87.75
24610;BME280;12758;47.890;11.694;2022-10-23T07:54:42;93925.09;;;10.99;88.19
24610;BME280;12758;47.890;11.694;2022-10-23T07:57:08;93928.06;;;11.06;87.62
24610;BME280;12758;47.890;11.694;2022-10-23T07:59:39;93917.47;;;11.13;87.73
24610;BME280;12758;47.890;11.694;2022-10-23T08:02:09;93922.97;;;11.26;87.55
24610;BME280;12758;47.890;11.694;2022-10-23T08:04:38;93917.16;;;11.36;87.63
24610;BME280;12758;47.890;11.694;2022-10-23T08:07:05;93917.28;;;11.60;86.20
24610;BME280;12758;47.890;11.694;2022-10-23T08:09:34;93914.38;;;11.65;85.15
24610;BME280;12758;47.890;11.694;2022-10-23T08:12:01;93910.09;;;11.77;85.52
24610;BME280;12758;47.890;11.694;2022-10-23T08:14:30;93909.72;;;11.87;85.31
24610;BME280;12758;47.890;11.694;2022-10-23T08:16:57;93916.78;;;11.88;84.64
24610;BME280;12758;47.890;11.694;2022-10-23T08:19:26;93914.72;;;11.97;83.75
24610;BME280;12758;47.890;11.694;2022-10-23T08:21:52;93922.81;;;12.06;85.16
24610;BME280;12758;47.890;11.694;2022-10-23T08:24:22;93929.06;;;12.06;84.03
24610;BME280;12758;47.890;11.694;2022-10-23T08:26:49;93926.84;;;12.21;83.64
24610;BME280;12758;47.890;11.694;2022-10-23T08:29:18;93929.13;;;12.31;84.47
24610;BME280;12758;47.890;11.694;2022-10-23T08:31:44;93922.09;;;12.30;85.25
24610;BME280;12758;47.890;11.694;2022-10-23T08:34:15;93928.91;;;12.48;94.43
24610;BME280;12758;47.890;11.694;2022-10-23T08:36:46;93918.28;;;12.55;90.32
24610;BME280;12758;47.890;11.694;2022-10-23T08:39:15;93924.19;;;12.70;87.03
24610;BME280;12758;47.890;11.694;2022-10-23T08:41:42;93923.75;;;12.92;86.26
24610;BME280;12758;47.890;11.694;2022-10-23T08:44:17;93916.03;;;13.07;85.73
24610;BME280;12758;47.890;11.694;2022-10-23T08:46:52;93910.44;;;13.15;85.29
24610;BME280;12758;47.890;11.694;2022-10-23T08:49:38;93910.44;;;13.40;82.35
24610;BME280;12758;47.890;11.694;2022-10-23T08:52:15;93911.09;;;13.49;82.25
24610;BME280;12758;47.890;11.694;2022-10-23T08:55:01;93909.13;;;13.62;80.08
24610;BME280;12758;47.890;11.694;2022-10-23T08:57:34;93912.84;;;13.69;79.91
24610;BME280;12758;47.890;11.694;2022-10-23T09:00:05;93910.22;;;13.73;79.52
24610;BME280;12758;47.890;11.694;2022-10-23T09:02:34;93906.63;;;13.57;80.66
24610;BME280;12758;47.890;11.694;2022-10-23T09:05:10;93907.94;;;13.75;80.17
24610;BME280;12758;47.890;11.694;2022-10-23T09:07:46;93911.53;;;13.91;80.21
24610;BME280;12758;47.890;11.694;2022-10-23T09:10:29;93913.28;;;13.99;79.32
24610;BME280;12758;47.890;11.694;2022-10-23T09:12:58;93910.00;;;14.22;78.69
24610;BME280;12758;47.890;11.694;2022-10-23T09:15:29;93904.53;;;14.22;79.11
24610;BME280;12758;47.890;11.694;2022-10-23T09:18:03;93901.28;;;14.16;77.93
24610;BME280;12758;47.890;11.694;2022-10-23T09:20:35;93897.19;;;14.38;79.37
24610;BME280;12758;47.890;11.694;2022-10-23T09:23:03;93904.69;;;14.57;78.57
24610;BME280;12758;47.890;11.694;2022-10-23T09:25:38;93897.03;;;14.95;76.39
24610;BME280;12758;47.890;11.694;2022-10-23T09:28:12;93896.78;;;15.00;74.54
24610;BME280;12758;47.890;11.694;2022-10-23T09:30:46;93895.72;;;15.40;73.03
24610;BME280;12758;47.890;11.694;2022-10-23T09:33:16;93888.84;;;15.30;72.27
24610;BME280;12758;47.890;11.694;2022-10-23T09:35:55;93882.47;;;15.42;70.33
24610;BME280;12758;47.890;11.694;2022-10-23T09:38:27;93888.25;;;15.56;67.98
24610;BME280;12758;47.890;11.694;2022-10-23T09:40:53;93889.44;;;15.39;68.35
24610;BME280;12758;47.890;11.694;2022-10-23T09:43:20;93890.72;;;15.61;68.39
24610;BME280;12758;47.890;11.694;2022-10-23T09:45:57;93881.88;;;15.87;66.82
24610;BME280;12758;47.890;11.694;2022-10-23T09:48:27;93890.28;;;16.17;67.05
24610;BME280;12758;47.890;11.694;2022-10-23T09:50:55;93890.81;;;16.46;64.83
24610;BME280;12758;47.890;11.694;2022-10-23T09:53:30;93884.03;;;16.63;65.46
24610;BME280;12758;47.890;11.694;2022-10-23T09:56:02;93881.31;;;16.40;65.29
24610;BME280;12758;47.890;11.694;2022-10-23T09:58:34;93872.19;;;16.55;65.40
24610;BME280;12758;47.890;11.694;2022-10-23T10:01:01;93872.06;;;16.25;67.54
24610;BME280;12758;47.890;11.694;2022-10-23T10:03:31;93865.91;;;16.32;65.07
24610;BME280;12758;47.890;11.694;2022-10-23T10:05:59;93866.53;;;16.67;65.25
24610;BME280;12758;47.890;11.694;2022-10-23T10:08:35;93870.50;;;16.27;66.15
24610;BME280;12758;47.890;11.694;2022-10-23T10:11:08;93870.38;;;15.43;70.64
24610;BME280;12758;47.890;11.694;2022-10-23T10:14:05;93863.00;;;14.76;73.73
24610;BME280;12758;47.890;11.694;2022-10-23T10:16:41;93874.78;;;14.17;80.89
24610;BME280;12758;47.890;11.694;2022-10-23T10:19:34;93870.03;;;13.58;80.40
24610;BME280;12758;47.890;11.694;2022-10-23T10:22:04;93855.66;;;13.45;84.44
24610;BME280;12758;47.890;11.694;2022-10-23T10:24:40;93865.78;;;13.32;85.43
24610;BME280;12758;47.890;11.694;2022-10-23T10:27:26;93862.88;;;13.25;87.26
24610;BME280;12758;47.890;11.694;2022-10-23T10:30:03;93857.41;;;13.13;87.12
24610;BME280;12758;47.890;11.694;2022-10-23T10:32:34;93854.81;;;13.16;88.35
24610;BME280;12758;47.890;11.694;2022-10-23T10:38:02;93855.28;;;13.59;91.48
24610;BME280;12758;47.890;11.694;2022-10-23T10:40:35;93853.56;;;13.26;88.81
24610;BME280;12758;47.890;11.694;2022-10-23T10:43:14;93852.41;;;13.39;94.27
24610;BME280;12758;47.890;11.694;2022-10-23T10:45:47;93848.22;;;13.30;92.45
24610;BME280;12758;47.890;11.694;2022-10-23T10:48:30;93846.63;;;13.28;94.04
24610;BME280;12758;47.890;11.694;2022-10-23T10:51:06;93844.91;;;13.24;93.10
24610;BME280;12758;47.890;11.694;2022-10-23T10:53:40;93839.28;;;13.45;96.82
24610;BME280;12758;47.890;11.694;2022-10-23T10:56:14;93835.63;;;13.25;92.62
24610;BME280;12758;47.890;11.694;2022-10-23T10:58:45;93828.88;;;13.35;95.64
24610;BME280;12758;47.890;11.694;2022-10-23T11:01:19;93822.72;;;13.38;94.86
24610;BME280;12758;47.890;11.694;2022-10-23T11:03:53;93816.41;;;13.34;93.95
24610;BME280;12758;47.890;11.694;2022-10-23T11:06:24;93809.47;;;13.36;94.67
24610;BME280;12758;47.890;11.694;2022-10-23T11:08:52;93808.00;;;13.39;94.57
24610;BME280;12758;47.890;11.694;2022-10-23T11:11:23;93814.31;;;13.71;100.00
24610;BME280;12758;47.890;11.694;2022-10-23T11:13:51;93806.38;;;13.38;92.72
24610;BME280;12758;47.890;11.694;2022-10-23T11:16:23;93803.41;;;13.43;92.65
24610;BME280;12758;47.890;11.694;2022-10-23T11:18:56;93805.00;;;13.44;92.62
24610;BME280;12758;47.890;11.694;2022-10-23T11:21:31;93807.56;;;13.52;95.03
24610;BME280;12758;47.890;11.694;2022-10-23T11:27:16;93813.50;;;13.70;97.92
24610;BME280;12758;47.890;11.694;2022-10-23T11:30:11;93803.59;;;13.78;98.78
24610;BME280;12758;47.890;11.694;2022-10-23T11:36:02;93808.56;;;14.04;100.00
24610;BME280;12758;47.890;11.694;2022-10-23T11:38:33;93792.69;;;13.78;94.38
24610;BME280;12758;47.890;11.694;2022-10-23T11:41:01;93788.44;;;13.65;93.88
24610;BME280;12758;47.890;11.694;2022-10-23T11:43:32;93792.06;;;13.85;97.92
24610;BME280;12758;47.890;11.694;2022-10-23T11:46:11;93788.97;;;13.86;96.98
24610;BME280;12758;47.890;11.694;2022-10-23T11:48:39;93778.69;;;13.95;98.16
24610;BME280;12758;47.890;11.694;2022-10-23T11:51:25;93780.03;;;14.02;96.99
24610;BME280;12758;47.890;11.694;2022-10-23T11:54:20;93769.28;;;14.09;96.68
24610;BME280;12758;47.890;11.694;2022-10-23T11:56:53;93769.97;;;14.06;96.02
24610;BME280;12758;47.890;11.694;2022-10-23T11:59:26;93761.00;;;14.21;98.21
24610;BME280;12758;47.890;11.694;2022-10-23T12:01:53;93764.88;;;14.52;100.00
24610;BME280;12758;47.890;11.694;2022-10-23T12:04:25;93757.13;;;14.54;99.97
24610;BME280;12758;47.890;11.694;2022-10-23T12:06:53;93748.69;;;14.27;95.02
24610;BME280;12758;47.890;11.694;2022-10-23T12:09:26;93747.81;;;14.07;92.17
24610;BME280;12758;47.890;11.694;2022-10-23T12:12:02;93747.91;;;14.11;93.35
24610;BME280;12758;47.890;11.694;2022-10-23T12:14:33;93743.22;;;14.27;97.60
24610;BME280;12758;47.890;11.694;2022-10-23T12:17:00;93755.09;;;14.51;99.99
24610;BME280;12758;47.890;11.694;2022-10-23T12:19:30;93761.25;;;15.76;100.00
24610;BME280;12758;47.890;11.694;2022-10-23T12:22:07;93756.41;;;16.12;98.65
24610;BME280;12758;47.890;11.694;2022-10-23T12:24:54;93751.22;;;15.84;95.32
24610;BME280;12758;47.890;11.694;2022-10-23T12:27:30;93745.59;;;15.34;95.02
24610;BME280;12758;47.890;11.694;2022-10-23T12:30:11;93742.34;;;15.29;99.19
24610;BME280;12758;47.890;11.694;2022-10-23T12:36:11;93738.22;;;14.80;94.22
24610;BME280;12758;47.890;11.694;2022-10-23T12:38:43;93740.91;;;14.61;95.60
24610;BME280;12758;47.890;11.694;2022-10-23T12:41:15;93735.25;;;14.54;95.09
24610;BME280;12758;47.890;11.694;2022-10-23T12:43:42;93730.47;;;14.66;97.70
24610;BME280;12758;47.890;11.694;2022-10-23T12:46:21;93731.94;;;14.80;100.00
24610;BME280;12758;47.890;11.694;2022-10-23T12:48:52;93726.75;;;14.75;99.30
24610;BME280;12758;47.890;11.694;2022-10-23T12:51:23;93718.16;;;14.57;95.14
24610;BME280;12758;47.890;11.694;2022-10-23T12:53:50;93718.22;;;14.96;100.00
24610;BME280;12758;47.890;11.694;2022-10-23T12:56:20;93722.47;;;15.12;100.00
24610;BME280;12758;47.890;11.694;2022-10-23T12:58:48;93726.00;;;14.94;100.00
24610;BME280;12758;47.890;11.694;2022-10-23T13:01:24;93718.66;;;14.78;97.93
24610;BME280;12758;47.890;11.694;2022-10-23T13:03:50;93725.28;;;14.97;100.00
24610;BME280;12758;47.890;11.694;2022-10-23T13:06:20;93721.53;;;15.05;100.00
24610;BME280;12758;47.890;11.694;2022-10-23T13:08:47;93712.03;;;14.79;98.00
24610;BME280;12758;47.890;11.694;2022-10-23T13:11:18;93711.03;;;14.87;99.24
24610;BME280;12758;47.890;11.694;2022-10-23T13:13:46;93713.56;;;15.35;100.00
24610;BME280;12758;47.890;11.694;2022-10-23T13:16:18;93717.22;;;15.66;100.00
24610;BME280;12758;47.890;11.694;2022-10-23T13:18:44;93725.22;;;16.20;99.33
24610;BME280;12758;47.890;11.694;2022-10-23T13:21:16;93715.75;;;16.14;98.00